sensor_id;sensor_type;location;lat;lon;timestamp;pressure;altitude;pressure_sealevel;temperature;humidity
75627;BME280;67372;49.404;11.034;2023-06-22T00:00:14;98266.06;;;19.36;75.67
75627;BME280;67372;49.404;11.034;2023-06-22T00:02:40;98278.25;;;19.33;77.40
75627;BME280;67372;49.404;11.034;2023-06-22T00:05:07;98265.25;;;19.30;75.24
75627;BME280;67372;49.404;11.034;2023-06-22T00:07:34;98272.56;;;19.29;75.48
75627;BME280;67372;49.404;11.034;2023-06-22T00:10:00;98279.59;;;19.25;75.50
75627;BME280;67372;49.404;11.034;2023-06-22T00:12:27;98277.16;;;19.24;75.64
75627;BME280;67372;49.404;11.034;2023-06-22T00:14:54;98276.09;;;19.20;75.69
75627;BME280;67372;49.404;11.034;2023-06-22T00:17:20;98290.44;;;19.20;75.44
75627;BME280;67372;49.404;11.034;2023-06-22T00:19:47;98292.59;;;19.18;75.87
75627;BME280;67372;49.404;11.034;2023-06-22T00:22:14;98287.69;;;19.15;75.69
75627;BME280;67372;49.404;11.034;2023-06-22T00:24:41;98281.75;;;19.13;75.79
75627;BME280;67372;49.404;11.034;2023-06-22T00:27:07;98300.94;;;19.12;75.91
75627;BME280;67372;49.404;11.034;2023-06-22T00:29:34;98302.31;;;19.09;75.92
75627;BME280;67372;49.404;11.034;2023-06-22T00:32:01;98306.34;;;19.07;76.32
75627;BME280;67372;49.404;11.034;2023-06-22T00:34:28;98314.19;;;19.03;76.17
75627;BME280;67372;49.404;11.034;2023-06-22T00:36:54;98328.53;;;18.98;76.86
75627;BME280;67372;49.404;11.034;2023-06-22T00:39:21;98330.16;;;18.94;77.13
75627;BME280;67372;49.404;11.034;2023-06-22T00:41:48;98326.88;;;18.92;77.29
75627;BME280;67372;49.404;11.034;2023-06-22T00:44:14;98322.81;;;18.90;76.98
75627;BME280;67372;49.404;11.034;2023-06-22T00:46:41;98325.53;;;18.90;77.08
75627;BME280;67372;49.404;11.034;2023-06-22T00:49:08;98332.28;;;18.82;78.53
75627;BME280;67372;49.404;11.034;2023-06-22T00:51:35;98330.09;;;18.74;79.20
75627;BME280;67372;49.404;11.034;2023-06-22T00:54:03;98322.22;;;18.67;79.18
75627;BME280;67372;49.404;11.034;2023-06-22T00:56:32;98315.44;;;18.65;79.00
75627;BME280;67372;49.404;11.034;2023-06-22T00:58:58;98311.66;;;18.66;79.26
75627;BME280;67372;49.404;11.034;2023-06-22T01:01:26;98311.66;;;18.66;78.57
75627;BME280;67372;49.404;11.034;2023-06-22T01:03:53;98316.81;;;18.67;78.60
75627;BME280;67372;49.404;11.034;2023-06-22T01:06:22;98326.25;;;18.65;79.90
75627;BME280;67372;49.404;11.034;2023-06-22T01:08:59;98316.78;;;18.62;78.67
75627;BME280;67372;49.404;11.034;2023-06-22T01:11:41;98300.00;;;18.55;80.14
75627;BME280;67372;49.404;11.034;2023-06-22T01:17:07;98288.91;;;18.47;80.00
75627;BME280;67372;49.404;11.034;2023-06-22T01:22:10;98270.53;;;18.49;80.05
75627;BME280;67372;49.404;11.034;2023-06-22T01:25:07;98263.53;;;18.53;80.22
75627;BME280;67372;49.404;11.034;2023-06-22T01:30:39;98249.19;;;18.57;79.02
75627;BME280;67372;49.404;11.034;2023-06-22T01:33:06;98255.97;;;18.60;78.91
75627;BME280;67372;49.404;11.034;2023-06-22T01:35:33;98253.56;;;18.63;78.66
75627;BME280;67372;49.404;11.034;2023-06-22T01:38:00;98252.75;;;18.63;78.82
75627;BME280;67372;49.404;11.034;2023-06-22T01:40:27;98253.53;;;18.58;79.70
75627;BME280;67372;49.404;11.034;2023-06-22T01:42:54;98269.19;;;18.56;79.32
75627;BME280;67372;49.404;11.034;2023-06-22T01:45:21;98265.69;;;18.56;78.85
75627;BME280;67372;49.404;11.034;2023-06-22T01:47:48;98259.75;;;18.54;79.34
75627;BME280;67372;49.404;11.034;2023-06-22T01:50:15;98259.72;;;18.49;79.05
75627;BME280;67372;49.404;11.034;2023-06-22T01:52:41;98256.72;;;18.45;79.28
75627;BME280;67372;49.404;11.034;2023-06-22T01:55:08;98263.47;;;18.42;78.95
75627;BME280;67372;49.404;11.034;2023-06-22T01:57:34;98271.03;;;18.40;78.88
75627;BME280;67372;49.404;11.034;2023-06-22T02:02:36;98258.88;;;18.38;78.72
75627;BME280;67372;49.404;11.034;2023-06-22T02:05:07;98258.31;;;18.36;78.90
75627;BME280;67372;49.404;11.034;2023-06-22T02:07:41;98253.72;;;18.31;79.00
75627;BME280;67372;49.404;11.034;2023-06-22T02:10:09;98271.00;;;18.30;78.97
75627;BME280;67372;49.404;11.034;2023-06-22T02:12:36;98271.28;;;18.29;79.25
75627;BME280;67372;49.404;11.034;2023-06-22T02:15:03;98277.22;;;18.26;79.35
75627;BME280;67372;49.404;11.034;2023-06-22T02:17:31;98275.84;;;18.23;79.02
75627;BME280;67372;49.404;11.034;2023-06-22T02:19:57;98282.56;;;18.21;79.49
75627;BME280;67372;49.404;11.034;2023-06-22T02:22:24;98275.53;;;18.15;79.88
75627;BME280;67372;49.404;11.034;2023-06-22T02:24:50;98272.81;;;18.09;79.86
75627;BME280;67372;49.404;11.034;2023-06-22T02:27:16;98285.22;;;18.05;79.99
75627;BME280;67372;49.404;11.034;2023-06-22T02:29:43;98280.28;;;17.97;81.37
75627;BME280;67372;49.404;11.034;2023-06-22T02:32:09;98270.53;;;17.91;80.72
75627;BME280;67372;49.404;11.034;2023-06-22T02:34:36;98285.09;;;17.85;82.40
75627;BME280;67372;49.404;11.034;2023-06-22T02:37:02;98292.09;;;17.81;83.38
75627;BME280;67372;49.404;11.034;2023-06-22T02:39:29;98294.50;;;17.77;82.30
75627;BME280;67372;49.404;11.034;2023-06-22T02:41:55;98305.59;;;17.81;82.24
75627;BME280;67372;49.404;11.034;2023-06-22T02:44:21;98319.06;;;17.76;84.45
75627;BME280;67372;49.404;11.034;2023-06-22T02:46:48;98337.81;;;17.66;85.00
75627;BME280;67372;49.404;11.034;2023-06-22T02:49:14;98361.03;;;17.67;84.85
75627;BME280;67372;49.404;11.034;2023-06-22T02:51:44;98371.81;;;17.67;85.42
75627;BME280;67372;49.404;11.034;2023-06-22T02:54:11;98374.78;;;17.65;85.71
75627;BME280;67372;49.404;11.034;2023-06-22T02:56:38;98383.34;;;17.57;86.78
75627;BME280;67372;49.404;11.034;2023-06-22T02:59:04;98394.41;;;17.56;87.12
75627;BME280;67372;49.404;11.034;2023-06-22T03:01:30;98390.13;;;17.60;87.07
75627;BME280;67372;49.404;11.034;2023-06-22T03:03:57;98386.03;;;17.52;87.98
75627;BME280;67372;49.404;11.034;2023-06-22T03:06:23;98385.41;;;17.45;89.03
75627;BME280;67372;49.404;11.034;2023-06-22T03:08:50;98380.31;;;17.48;87.70
75627;BME280;67372;49.404;11.034;2023-06-22T03:11:17;98381.38;;;17.47;88.10
75627;BME280;67372;49.404;11.034;2023-06-22T03:13:43;98381.09;;;17.49;86.84
75627;BME280;67372;49.404;11.034;2023-06-22T03:16:10;98381.38;;;17.47;88.99
75627;BME280;67372;49.404;11.034;2023-06-22T03:18:36;98384.94;;;17.53;87.01
75627;BME280;67372;49.404;11.034;2023-06-22T03:21:02;98386.88;;;17.58;86.55
75627;BME280;67372;49.404;11.034;2023-06-22T03:23:29;98373.97;;;17.65;85.65
75627;BME280;67372;49.404;11.034;2023-06-22T03:25:55;98372.16;;;17.70;85.33
75627;BME280;67372;49.404;11.034;2023-06-22T03:28:21;98361.91;;;17.72;85.47
75627;BME280;67372;49.404;11.034;2023-06-22T03:30:48;98344.91;;;17.72;85.53
75627;BME280;67372;49.404;11.034;2023-06-22T03:33:14;98351.72;;;17.79;84.80
75627;BME280;67372;49.404;11.034;2023-06-22T03:35:41;98355.53;;;17.84;85.09
75627;BME280;67372;49.404;11.034;2023-06-22T03:38:07;98343.69;;;17.90;85.10
75627;BME280;67372;49.404;11.034;2023-06-22T03:40:33;98339.94;;;17.96;84.24
75627;BME280;67372;49.404;11.034;2023-06-22T03:43:00;98344.06;;;18.03;83.75
75627;BME280;67372;49.404;11.034;2023-06-22T03:45:26;98352.47;;;18.12;83.44
75627;BME280;67372;49.404;11.034;2023-06-22T03:47:52;98338.19;;;18.17;83.30
75627;BME280;67372;49.404;11.034;2023-06-22T03:50:19;98327.16;;;18.23;83.18
75627;BME280;67372;49.404;11.034;2023-06-22T03:52:46;98327.72;;;18.30;82.93
75627;BME280;67372;49.404;11.034;2023-06-22T03:55:12;98336.66;;;18.36;83.04
75627;BME280;67372;49.404;11.034;2023-06-22T03:57:39;98312.91;;;18.38;83.18
75627;BME280;67372;49.404;11.034;2023-06-22T04:00:05;98302.09;;;18.43;83.38
75627;BME280;67372;49.404;11.034;2023-06-22T04:02:32;98302.97;;;18.54;83.06
75627;BME280;67372;49.404;11.034;2023-06-22T04:04:58;98318.69;;;18.67;82.85
75627;BME280;67372;49.404;11.034;2023-06-22T04:07:29;98303.06;;;18.79;82.52
75627;BME280;67372;49.404;11.034;2023-06-22T04:09:55;98292.31;;;18.99;82.12
75627;BME280;67372;49.404;11.034;2023-06-22T04:12:22;98282.84;;;19.22;81.36
75627;BME280;67372;49.404;11.034;2023-06-22T04:14:48;98291.78;;;19.48;80.66
75627;BME280;67372;49.404;11.034;2023-06-22T04:17:14;98299.63;;;19.70;80.03
75627;BME280;67372;49.404;11.034;2023-06-22T04:19:41;98293.38;;;19.95;79.25
75627;BME280;67372;49.404;11.034;2023-06-22T04:22:07;98286.53;;;20.13;78.30
75627;BME280;67372;49.404;11.034;2023-06-22T04:24:33;98282.69;;;20.24;77.79
75627;BME280;67372;49.404;11.034;2023-06-22T04:27:00;98283.47;;;20.40;77.36
75627;BME280;67372;49.404;11.034;2023-06-22T04:29:26;98283.13;;;20.57;76.96
75627;BME280;67372;49.404;11.034;2023-06-22T04:31:52;98276.53;;;20.73;76.34
75627;BME280;67372;49.404;11.034;2023-06-22T04:34:19;98272.34;;;20.91;75.60
75627;BME280;67372;49.404;11.034;2023-06-22T04:36:45;98267.66;;;21.06;75.21
75627;BME280;67372;49.404;11.034;2023-06-22T04:39:12;98241.22;;;21.17;73.88
75627;BME280;67372;49.404;11.034;2023-06-22T04:41:40;98241.47;;;21.21;73.28
75627;BME280;67372;49.404;11.034;2023-06-22T04:44:06;98253.13;;;21.21;73.02
75627;BME280;67372;49.404;11.034;2023-06-22T04:46:33;98253.66;;;21.23;72.63
75627;BME280;67372;49.404;11.034;2023-06-22T04:48:59;98250.94;;;21.23;72.46
75627;BME280;67372;49.404;11.034;2023-06-22T04:51:25;98242.56;;;21.20;72.26
75627;BME280;67372;49.404;11.034;2023-06-22T04:53:52;98235.56;;;21.13;72.14
75627;BME280;67372;49.404;11.034;2023-06-22T04:56:18;98242.38;;;21.11;72.54
75627;BME280;67372;49.404;11.034;2023-06-22T04:58:44;98246.75;;;21.07;72.30
75627;BME280;67372;49.404;11.034;2023-06-22T05:01:11;98247.00;;;21.10;72.27
75627;BME280;67372;49.404;11.034;2023-06-22T05:03:37;98245.38;;;21.09;71.85
75627;BME280;67372;49.404;11.034;2023-06-22T05:06:04;98232.09;;;21.08;71.92
75627;BME280;67372;49.404;11.034;2023-06-22T05:08:30;98236.16;;;21.05;71.81
75627;BME280;67372;49.404;11.034;2023-06-22T05:10:56;98233.72;;;21.04;72.09
75627;BME280;67372;49.404;11.034;2023-06-22T05:13:31;98240.53;;;21.01;72.43
75627;BME280;67372;49.404;11.034;2023-06-22T05:15:57;98237.00;;;21.01;71.60
75627;BME280;67372;49.404;11.034;2023-06-22T05:18:24;98232.09;;;21.08;71.74
75627;BME280;67372;49.404;11.034;2023-06-22T05:20:50;98234.47;;;21.14;71.55
75627;BME280;67372;49.404;11.034;2023-06-22T05:23:17;98234.66;;;21.23;71.50
75627;BME280;67372;49.404;11.034;2023-06-22T05:25:43;98234.94;;;21.27;71.69
75627;BME280;67372;49.404;11.034;2023-06-22T05:28:09;98236.75;;;21.36;71.57
75627;BME280;67372;49.404;11.034;2023-06-22T05:30:36;98227.69;;;21.46;71.23
75627;BME280;67372;49.404;11.034;2023-06-22T05:33:02;98223.66;;;21.43;71.10
75627;BME280;67372;49.404;11.034;2023-06-22T05:35:29;98230.94;;;21.48;70.99
75627;BME280;67372;49.404;11.034;2023-06-22T05:37:55;98237.91;;;21.59;70.99
75627;BME280;67372;49.404;11.034;2023-06-22T05:40:21;98236.09;;;21.73;70.68
75627;BME280;67372;49.404;11.034;2023-06-22T05:42:48;98224.06;;;21.85;70.31
75627;BME280;67372;49.404;11.034;2023-06-22T05:45:14;98221.28;;;21.90;70.19
75627;BME280;67372;49.404;11.034;2023-06-22T05:47:41;98227.16;;;21.97;70.02
75627;BME280;67372;49.404;11.034;2023-06-22T05:50:07;98235.22;;;22.07;69.81
75627;BME280;67372;49.404;11.034;2023-06-22T05:52:37;98219.91;;;22.16;69.43
75627;BME280;67372;49.404;11.034;2023-06-22T05:55:04;98214.84;;;22.28;69.28
75627;BME280;67372;49.404;11.034;2023-06-22T05:57:30;98210.16;;;22.34;68.47
75627;BME280;67372;49.404;11.034;2023-06-22T05:59:57;98220.38;;;22.42;68.79
75627;BME280;67372;49.404;11.034;2023-06-22T06:02:23;98219.66;;;22.55;68.64
75627;BME280;67372;49.404;11.034;2023-06-22T06:04:49;98222.44;;;22.69;68.30
75627;BME280;67372;49.404;11.034;2023-06-22T06:07:16;98209.28;;;22.76;67.50
75627;BME280;67372;49.404;11.034;2023-06-22T06:09:42;98206.72;;;22.85;67.73
75627;BME280;67372;49.404;11.034;2023-06-22T06:12:09;98204.44;;;22.92;67.31
75627;BME280;67372;49.404;11.034;2023-06-22T06:14:35;98204.38;;;22.97;67.32
75627;BME280;67372;49.404;11.034;2023-06-22T06:17:02;98210.16;;;23.09;67.31
75627;BME280;67372;49.404;11.034;2023-06-22T06:19:28;98200.19;;;23.18;66.92
75627;BME280;67372;49.404;11.034;2023-06-22T06:21:54;98198.63;;;23.31;66.70
75627;BME280;67372;49.404;11.034;2023-06-22T06:24:21;98185.34;;;23.43;66.32
75627;BME280;67372;49.404;11.034;2023-06-22T06:26:47;98193.81;;;23.55;65.89
75627;BME280;67372;49.404;11.034;2023-06-22T06:29:13;98195.28;;;23.67;66.05
75627;BME280;67372;49.404;11.034;2023-06-22T06:31:40;98188.72;;;23.81;65.53
75627;BME280;67372;49.404;11.034;2023-06-22T06:34:06;98193.16;;;23.91;65.27
75627;BME280;67372;49.404;11.034;2023-06-22T06:36:33;98179.81;;;23.89;63.98
75627;BME280;67372;49.404;11.034;2023-06-22T06:38:59;98182.03;;;23.87;64.48
75627;BME280;67372;49.404;11.034;2023-06-22T06:41:25;98180.03;;;23.93;64.67
75627;BME280;67372;49.404;11.034;2023-06-22T06:43:52;98180.81;;;24.07;64.62
75627;BME280;67372;49.404;11.034;2023-06-22T06:46:18;98171.34;;;24.18;63.94
75627;BME280;67372;49.404;11.034;2023-06-22T06:48:45;98171.53;;;24.22;63.53
75627;BME280;67372;49.404;11.034;2023-06-22T06:51:11;98168.91;;;24.31;63.57
75627;BME280;67372;49.404;11.034;2023-06-22T06:53:38;98162.50;;;24.35;63.05
75627;BME280;67372;49.404;11.034;2023-06-22T06:56:04;98160.69;;;24.44;62.81
75627;BME280;67372;49.404;11.034;2023-06-22T06:58:31;98158.13;;;24.62;62.61
75627;BME280;67372;49.404;11.034;2023-06-22T07:00:57;98157.69;;;24.68;61.87
75627;BME280;67372;49.404;11.034;2023-06-22T07:03:24;98149.69;;;24.72;61.53
75627;BME280;67372;49.404;11.034;2023-06-22T07:05:50;98151.03;;;24.83;61.17
75627;BME280;67372;49.404;11.034;2023-06-22T07:08:17;98149.69;;;24.94;60.86
75627;BME280;67372;49.404;11.034;2023-06-22T07:10:43;98147.66;;;25.00;60.28
75627;BME280;67372;49.404;11.034;2023-06-22T07:13:09;98151.03;;;25.05;59.92
75627;BME280;67372;49.404;11.034;2023-06-22T07:15:36;98154.47;;;25.11;60.29
75627;BME280;67372;49.404;11.034;2023-06-22T07:18:02;98141.66;;;25.20;59.55
75627;BME280;67372;49.404;11.034;2023-06-22T07:20:28;98146.03;;;25.30;59.38
75627;BME280;67372;49.404;11.034;2023-06-22T07:22:55;98144.34;;;25.43;59.54
75627;BME280;67372;49.404;11.034;2023-06-22T07:25:22;98144.88;;;25.53;58.49
75627;BME280;67372;49.404;11.034;2023-06-22T07:27:58;98146.22;;;25.64;57.94
75627;BME280;67372;49.404;11.034;2023-06-22T07:30:25;98140.16;;;25.76;57.86
75627;BME280;67372;49.404;11.034;2023-06-22T07:32:52;98135.72;;;25.89;57.98
75627;BME280;67372;49.404;11.034;2023-06-22T07:35:19;98140.75;;;26.04;56.90
75627;BME280;67372;49.404;11.034;2023-06-22T07:37:45;98142.03;;;26.15;56.40
75627;BME280;67372;49.404;11.034;2023-06-22T07:40:12;98138.00;;;26.21;55.89
75627;BME280;67372;49.404;11.034;2023-06-22T07:42:38;98142.50;;;26.17;53.87
75627;BME280;67372;49.404;11.034;2023-06-22T07:45:05;98137.56;;;26.28;55.09
75627;BME280;67372;49.404;11.034;2023-06-22T07:47:32;98141.59;;;26.39;54.86
75627;BME280;67372;49.404;11.034;2023-06-22T07:49:59;98135.66;;;26.54;53.74
75627;BME280;67372;49.404;11.034;2023-06-22T07:52:25;98128.72;;;26.66;53.77
75627;BME280;67372;49.404;11.034;2023-06-22T07:54:52;98119.69;;;26.65;52.61
75627;BME280;67372;49.404;11.034;2023-06-22T07:57:19;98123.41;;;26.78;53.13
75627;BME280;67372;49.404;11.034;2023-06-22T07:59:45;98120.31;;;26.88;53.10
75627;BME280;67372;49.404;11.034;2023-06-22T08:02:12;98118.69;;;26.96;52.26
75627;BME280;67372;49.404;11.034;2023-06-22T08:04:39;98124.38;;;26.99;52.01
75627;BME280;67372;49.404;11.034;2023-06-22T08:07:05;98120.78;;;27.07;52.16
75627;BME280;67372;49.404;11.034;2023-06-22T08:09:32;98127.53;;;27.18;51.06
75627;BME280;67372;49.404;11.034;2023-06-22T08:11:59;98128.13;;;27.33;51.52
75627;BME280;67372;49.404;11.034;2023-06-22T08:14:26;98122.47;;;27.38;51.32
75627;BME280;67372;49.404;11.034;2023-06-22T08:16:53;98112.56;;;27.54;51.19
75627;BME280;67372;49.404;11.034;2023-06-22T08:19:19;98116.75;;;27.69;51.08
75627;BME280;67372;49.404;11.034;2023-06-22T08:21:45;98115.22;;;27.80;49.56
75627;BME280;67372;49.404;11.034;2023-06-22T08:24:12;98115.34;;;27.83;49.83
75627;BME280;67372;49.404;11.034;2023-06-22T08:26:38;98118.06;;;27.92;49.59
75627;BME280;67372;49.404;11.034;2023-06-22T08:29:05;98111.50;;;28.05;49.24
75627;BME280;67372;49.404;11.034;2023-06-22T08:31:31;98111.94;;;28.16;49.22
75627;BME280;67372;49.404;11.034;2023-06-22T08:33:58;98106.91;;;28.18;48.30
75627;BME280;67372;49.404;11.034;2023-06-22T08:36:24;98109.28;;;28.28;49.54
75627;BME280;67372;49.404;11.034;2023-06-22T08:38:51;98119.25;;;28.33;48.98
75627;BME280;67372;49.404;11.034;2023-06-22T08:41:17;98123.47;;;28.30;47.61
75627;BME280;67372;49.404;11.034;2023-06-22T08:43:44;98128.28;;;28.33;48.73
75627;BME280;67372;49.404;11.034;2023-06-22T08:46:10;98120.13;;;28.46;48.58
75627;BME280;67372;49.404;11.034;2023-06-22T08:48:37;98115.34;;;28.55;48.58
75627;BME280;67372;49.404;11.034;2023-06-22T08:51:04;98109.31;;;28.61;48.26
75627;BME280;67372;49.404;11.034;2023-06-22T08:53:30;98107.19;;;28.67;48.10
75627;BME280;67372;49.404;11.034;2023-06-22T08:55:57;98112.25;;;28.77;47.60
75627;BME280;67372;49.404;11.034;2023-06-22T08:58:23;98099.25;;;28.86;46.68
75627;BME280;67372;49.404;11.034;2023-06-22T09:00:49;98102.94;;;28.90;46.67
75627;BME280;67372;49.404;11.034;2023-06-22T09:03:16;98105.72;;;29.02;46.25
75627;BME280;67372;49.404;11.034;2023-06-22T09:05:42;98101.75;;;29.12;46.43
75627;BME280;67372;49.404;11.034;2023-06-22T09:08:10;98110.44;;;29.26;46.55
75627;BME280;67372;49.404;11.034;2023-06-22T09:10:37;98104.28;;;29.29;45.20
75627;BME280;67372;49.404;11.034;2023-06-22T09:13:03;98093.66;;;29.40;45.24
75627;BME280;67372;49.404;11.034;2023-06-22T09:15:29;98087.47;;;29.55;45.20
75627;BME280;67372;49.404;11.034;2023-06-22T09:17:56;98083.03;;;29.63;44.92
75627;BME280;67372;49.404;11.034;2023-06-22T09:20:23;98067.09;;;29.69;44.58
75627;BME280;67372;49.404;11.034;2023-06-22T09:22:49;98068.44;;;29.75;44.24
75627;BME280;67372;49.404;11.034;2023-06-22T09:25:16;98066.03;;;29.85;43.72
75627;BME280;67372;49.404;11.034;2023-06-22T09:27:42;98056.94;;;29.97;43.95
75627;BME280;67372;49.404;11.034;2023-06-22T09:30:08;98048.94;;;30.04;42.95
75627;BME280;67372;49.404;11.034;2023-06-22T09:32:35;98058.09;;;29.96;42.72
75627;BME280;67372;49.404;11.034;2023-06-22T09:35:04;98058.09;;;29.96;42.27
75627;BME280;67372;49.404;11.034;2023-06-22T09:37:31;98048.63;;;30.06;42.97
75627;BME280;67372;49.404;11.034;2023-06-22T09:39:57;98039.06;;;30.15;42.26
75627;BME280;67372;49.404;11.034;2023-06-22T09:42:24;98038.91;;;30.24;41.70
75627;BME280;67372;49.404;11.034;2023-06-22T09:44:50;98036.03;;;30.33;41.78
75627;BME280;67372;49.404;11.034;2023-06-22T09:47:16;98028.84;;;30.44;41.71
75627;BME280;67372;49.404;11.034;2023-06-22T09:49:43;98011.72;;;30.50;41.43
75627;BME280;67372;49.404;11.034;2023-06-22T09:52:14;98012.72;;;30.58;40.67
75627;BME280;67372;49.404;11.034;2023-06-22T09:54:40;98014.97;;;30.68;40.69
75627;BME280;67372;49.404;11.034;2023-06-22T09:57:06;98018.03;;;30.79;40.17
75627;BME280;67372;49.404;11.034;2023-06-22T09:59:33;98017.94;;;30.91;40.08
75627;BME280;67372;49.404;11.034;2023-06-22T10:01:59;98022.47;;;30.99;39.68
75627;BME280;67372;49.404;11.034;2023-06-22T10:04:26;98011.13;;;31.01;39.84
75627;BME280;67372;49.404;11.034;2023-06-22T10:06:52;97993.22;;;30.95;39.18
75627;BME280;67372;49.404;11.034;2023-06-22T10:09:19;97989.59;;;30.91;39.46
75627;BME280;67372;49.404;11.034;2023-06-22T10:11:45;97996.34;;;30.93;39.02
75627;BME280;67372;49.404;11.034;2023-06-22T10:14:11;98000.41;;;30.99;39.30
75627;BME280;67372;49.404;11.034;2023-06-22T10:16:38;97995.09;;;31.06;39.25
75627;BME280;67372;49.404;11.034;2023-06-22T10:19:04;98005.63;;;31.17;39.33
75627;BME280;67372;49.404;11.034;2023-06-22T10:21:30;98003.28;;;31.19;39.13
75627;BME280;67372;49.404;11.034;2023-06-22T10:23:57;98012.63;;;31.30;37.88
75627;BME280;67372;49.404;11.034;2023-06-22T10:26:23;98006.22;;;31.41;38.83
75627;BME280;67372;49.404;11.034;2023-06-22T10:28:50;98007.19;;;31.49;38.19
75627;BME280;67372;49.404;11.034;2023-06-22T10:31:25;98014.09;;;31.59;37.65
75627;BME280;67372;49.404;11.034;2023-06-22T10:33:52;98014.53;;;31.61;36.51
75627;BME280;67372;49.404;11.034;2023-06-22T10:36:19;98016.94;;;31.62;37.37
75627;BME280;67372;49.404;11.034;2023-06-22T10:38:45;98028.06;;;31.66;37.67
75627;BME280;67372;49.404;11.034;2023-06-22T10:41:11;98025.94;;;31.75;38.08
75627;BME280;67372;49.404;11.034;2023-06-22T10:43:38;98032.03;;;31.84;37.29
75627;BME280;67372;49.404;11.034;2023-06-22T10:46:04;98042.06;;;31.92;37.20
75627;BME280;67372;49.404;11.034;2023-06-22T10:48:31;98033.53;;;31.97;37.32
75627;BME280;67372;49.404;11.034;2023-06-22T10:50:57;98024.53;;;32.00;36.74
75627;BME280;67372;49.404;11.034;2023-06-22T10:53:23;98024.59;;;32.04;36.72
75627;BME280;67372;49.404;11.034;2023-06-22T10:55:50;98028.16;;;32.04;36.96
75627;BME280;67372;49.404;11.034;2023-06-22T10:58:22;98025.41;;;32.04;36.96
75627;BME280;67372;49.404;11.034;2023-06-22T11:00:49;98020.88;;;32.16;37.36
75627;BME280;67372;49.404;11.034;2023-06-22T11:03:15;98018.03;;;32.28;36.98
75627;BME280;67372;49.404;11.034;2023-06-22T11:05:42;97999.25;;;32.37;36.22
75627;BME280;67372;49.404;11.034;2023-06-22T11:08:08;98002.16;;;32.44;36.10
75627;BME280;67372;49.404;11.034;2023-06-22T11:10:35;97997.56;;;32.52;35.84
75627;BME280;67372;49.404;11.034;2023-06-22T11:13:01;97990.25;;;32.63;36.11
75627;BME280;67372;49.404;11.034;2023-06-22T11:15:27;97989.25;;;32.71;35.66
75627;BME280;67372;49.404;11.034;2023-06-22T11:17:54;97979.78;;;32.72;35.21
75627;BME280;67372;49.404;11.034;2023-06-22T11:20:20;97978.31;;;32.78;35.49
75627;BME280;67372;49.404;11.034;2023-06-22T11:22:47;97981.97;;;32.82;34.83
75627;BME280;67372;49.404;11.034;2023-06-22T11:25:13;97976.34;;;32.79;35.09
75627;BME280;67372;49.404;11.034;2023-06-22T11:27:40;97975.63;;;32.82;35.10
75627;BME280;67372;49.404;11.034;2023-06-22T11:30:07;97983.69;;;32.90;35.35
75627;BME280;67372;49.404;11.034;2023-06-22T11:32:34;97978.28;;;32.97;34.82
75627;BME280;67372;49.404;11.034;2023-06-22T11:35:00;97975.25;;;33.06;35.03
75627;BME280;67372;49.404;11.034;2023-06-22T11:37:27;97968.19;;;33.09;34.82
75627;BME280;67372;49.404;11.034;2023-06-22T11:39:53;97969.66;;;33.03;34.38
75627;BME280;67372;49.404;11.034;2023-06-22T11:42:24;97962.22;;;33.07;34.11
75627;BME280;67372;49.404;11.034;2023-06-22T11:44:51;97956.69;;;33.07;34.11
75627;BME280;67372;49.404;11.034;2023-06-22T11:47:17;97947.75;;;33.13;33.95
75627;BME280;67372;49.404;11.034;2023-06-22T11:49:43;97942.69;;;33.19;34.11
75627;BME280;67372;49.404;11.034;2023-06-22T11:52:10;97939.59;;;33.24;34.10
75627;BME280;67372;49.404;11.034;2023-06-22T11:54:36;97947.34;;;33.38;34.08
75627;BME280;67372;49.404;11.034;2023-06-22T11:57:03;97930.41;;;33.43;33.46
75627;BME280;67372;49.404;11.034;2023-06-22T11:59:29;97936.84;;;33.50;33.78
75627;BME280;67372;49.404;11.034;2023-06-22T12:01:57;97930.13;;;33.51;33.53
75627;BME280;67372;49.404;11.034;2023-06-22T12:04:23;97928.19;;;33.55;33.85
75627;BME280;67372;49.404;11.034;2023-06-22T12:06:50;97921.44;;;33.53;33.43
75627;BME280;67372;49.404;11.034;2023-06-22T12:09:16;97915.66;;;33.62;33.91
75627;BME280;67372;49.404;11.034;2023-06-22T12:11:42;97915.41;;;33.74;33.47
75627;BME280;67372;49.404;11.034;2023-06-22T12:14:09;97915.44;;;33.77;32.61
75627;BME280;67372;49.404;11.034;2023-06-22T12:16:35;97901.78;;;33.88;33.39
75627;BME280;67372;49.404;11.034;2023-06-22T12:19:01;97902.66;;;33.96;32.39
75627;BME280;67372;49.404;11.034;2023-06-22T12:21:28;97891.66;;;34.06;31.83
75627;BME280;67372;49.404;11.034;2023-06-22T12:23:54;97877.38;;;34.01;31.68
75627;BME280;67372;49.404;11.034;2023-06-22T12:26:21;97876.81;;;34.22;31.91
75627;BME280;67372;49.404;11.034;2023-06-22T12:28:48;97870.75;;;34.46;31.45
75627;BME280;67372;49.404;11.034;2023-06-22T12:31:14;97855.06;;;34.64;31.46
75627;BME280;67372;49.404;11.034;2023-06-22T12:33:40;97861.47;;;34.75;31.53
75627;BME280;67372;49.404;11.034;2023-06-22T12:36:07;97844.19;;;34.89;31.39
75627;BME280;67372;49.404;11.034;2023-06-22T12:38:33;97850.22;;;35.02;31.13
75627;BME280;67372;49.404;11.034;2023-06-22T12:40:59;97855.47;;;35.25;31.25
75627;BME280;67372;49.404;11.034;2023-06-22T12:43:26;97848.06;;;35.36;30.15
75627;BME280;67372;49.404;11.034;2023-06-22T12:45:52;97840.59;;;35.51;30.24
75627;BME280;67372;49.404;11.034;2023-06-22T12:48:18;97845.31;;;35.47;30.55
75627;BME280;67372;49.404;11.034;2023-06-22T12:50:45;97846.56;;;35.56;30.70
75627;BME280;67372;49.404;11.034;2023-06-22T12:53:12;97842.59;;;35.54;30.42
75627;BME280;67372;49.404;11.034;2023-06-22T12:55:38;97833.84;;;35.52;30.11
75627;BME280;67372;49.404;11.034;2023-06-22T12:58:05;97836.63;;;35.52;30.17